Time;durP1;ratioP1;P1;durP2;ratioP2;P2;SDS_P1;SDS_P2;PMS_P1;PMS_P2;Temp;Humidity;BMP_temperature;BMP_pressure;BME280_temperature;BME280_humidity;BME280_pressure;Samples;Min_cycle;Max_cycle;Signal;HPM_P1;HPM_P2
2022/10/01 00:01:46;;;;;;;8.13;4.13;;;;;;;10.17;100.00;99322.03;12221438;19;20360;-79
2022/10/01 00:06:18;;;;;;;8.55;4.15;;;;;;;10.26;100.00;99318.59;12224411;19;20813;-80
2022/10/01 00:10:19;;;;;;;5.28;3.63;;;;;;;10.37;100.00;99322.28;12198362;19;20007;-77
2022/10/01 00:14:21;;;;;;;5.80;3.83;;;;;;;10.43;100.00;99320.41;12220800;19;20011;-80
2022/10/01 00:18:23;;;;;;;9.98;4.72;;;;;;;10.55;100.00;99332.09;12197488;19;20014;-78
2022/10/01 00:22:24;;;;;;;8.52;5.10;;;;;;;10.63;100.00;99322.53;12223949;19;20006;-80
2022/10/01 00:26:30;;;;;;;9.93;5.93;;;;;;;10.68;100.00;99312.38;12216799;19;20045;-78
2022/10/01 00:30:32;;;;;;;10.05;6.07;;;;;;;10.76;100.00;99312.97;12197358;19;20026;-77
2022/10/01 00:34:40;;;;;;;11.00;7.30;;;;;;;10.80;100.00;99305.88;12219164;19;20397;-78
2022/10/01 00:38:41;;;;;;;12.00;7.18;;;;;;;10.84;100.00;99287.69;12218765;19;20010;-78
2022/10/01 00:42:43;;;;;;;10.95;6.75;;;;;;;10.86;100.00;99285.50;12194412;19;20038;-78
2022/10/01 00:46:45;;;;;;;10.38;6.22;;;;;;;10.93;100.00;99273.16;12212780;19;20069;-78
2022/10/01 00:50:48;;;;;;;9.82;6.05;;;;;;;11.00;100.00;99275.66;12216443;19;20025;-78
2022/10/01 00:55:02;;;;;;;8.65;5.45;;;;;;;11.00;100.00;99274.84;12196517;19;20169;-78
2022/10/01 00:59:05;;;;;;;7.20;4.97;;;;;;;11.07;100.00;99275.44;12248517;19;20022;-78
2022/10/01 01:03:09;;;;;;;8.20;4.85;;;;;;;11.07;100.00;99273.53;12253391;19;20021;-77
2022/10/01 01:07:11;;;;;;;8.25;4.40;;;;;;;11.15;100.00;99270.28;12232544;19;20010;-78
2022/10/01 01:11:31;;;;;;;9.05;4.70;;;;;;;11.20;100.00;99274.97;12246910;19;20019;-78
2022/10/01 01:15:59;;;;;;;10.15;4.72;;;;;;;11.22;100.00;99260.94;12189439;19;20446;-77
2022/10/01 01:20:03;;;;;;;6.63;4.28;;;;;;;11.26;100.00;99256.53;12206512;19;20010;-77
2022/10/01 01:24:40;;;;;;;7.78;4.13;;;;;;;11.30;100.00;99257.63;12213025;19;19999;-78
2022/10/01 01:28:49;;;;;;;8.80;4.43;;;;;;;11.36;100.00;99256.56;12185899;19;20591;-78
2022/10/01 01:33:17;;;;;;;8.05;4.93;;;;;;;11.41;100.00;99253.84;12207365;19;20440;-79
2022/10/01 01:37:25;;;;;;;7.70;3.78;;;;;;;11.41;100.00;99249.13;12192129;19;20014;-79
2022/10/01 01:41:29;;;;;;;7.93;4.20;;;;;;;11.49;100.00;99238.72;12219711;19;20017;-78
2022/10/01 01:45:38;;;;;;;6.05;3.70;;;;;;;11.49;100.00;99241.47;12201447;19;20062;-78
2022/10/01 01:49:41;;;;;;;8.07;3.85;;;;;;;11.45;100.00;99227.38;12222466;19;20007;-79
2022/10/01 01:53:43;;;;;;;8.68;5.10;;;;;;;11.39;100.00;99226.53;12225801;19;20010;-79
2022/10/01 01:57:45;;;;;;;7.78;4.47;;;;;;;11.40;100.00;99221.84;12205007;19;20094;-78
2022/10/01 02:01:48;;;;;;;7.70;4.47;;;;;;;11.38;100.00;99221.28;12236133;19;20014;-79
2022/10/01 02:06:10;;;;;;;;;;;;;;;11.30;100.00;99224.53;12229077;19;20003;-78
2022/10/01 02:10:27;;;;;;;8.77;3.50;;;;;;;11.39;100.00;99212.75;12203995;19;19945;-81
2022/10/01 02:14:46;;;;;;;7.88;3.83;;;;;;;11.36;100.00;99202.25;12225987;19;20051;-79
2022/10/01 02:18:57;;;;;;;8.20;3.40;;;;;;;11.38;100.00;99208.31;12202320;19;20403;-80
2022/10/01 02:23:05;;;;;;;6.35;3.70;;;;;;;11.37;99.42;99209.41;12224289;19;20038;-80
2022/10/01 02:27:12;;;;;;;5.97;3.55;;;;;;;11.36;99.17;99210.53;12221408;19;20018;-80
2022/10/01 02:31:16;;;;;;;6.53;4.18;;;;;;;11.32;99.20;99220.41;12205441;19;20003;-78
2022/10/01 02:35:20;;;;;;;7.00;4.22;;;;;;;11.35;100.00;99214.34;12223772;19;20010;-79
2022/10/01 02:39:25;;;;;;;7.60;4.18;;;;;;;11.39;100.00;99200.84;12214257;19;20475;-79
2022/10/01 02:43:34;;;;;;;12.27;3.88;;;;;;;11.32;100.00;99201.09;12224248;19;20014;-78
2022/10/01 02:47:49;;;;;;;8.98;4.97;;;;;;;11.27;100.00;99198.31;12222579;19;20050;-78
2022/10/01 02:52:12;;;;;;;7.10;4.10;;;;;;;11.34;100.00;99189.81;12204601;19;20460;-79
2022/10/01 02:57:21;;;;;;;8.00;4.22;;;;;;;11.32;100.00;99175.47;12220923;19;20014;-79
2022/10/01 03:00:35;;;;;;;5.13;3.35;;;;;;;11.35;99.29;99184.03;12199292;19;20006;-78
2022/10/01 03:04:37;;;;;;;6.18;3.25;;;;;;;11.36;98.68;99182.09;12219007;19;20511;-79
2022/10/01 03:08:52;;;;;;;4.32;3.10;;;;;;;11.41;98.20;99177.41;12220286;19;20010;-79
2022/10/01 03:12:54;;;;;;;4.93;2.90;;;;;;;11.45;97.64;99174.97;12184022;19;20055;-84
2022/10/01 03:16:56;;;;;;;5.30;2.87;;;;;;;11.47;96.84;99169.16;12215920;19;20779;-84
2022/10/01 03:20:57;;;;;;;4.47;2.72;;;;;;;11.50;95.06;99158.41;12212698;19;20026;-84
2022/10/01 03:24:59;;;;;;;9.30;3.42;;;;;;;11.60;94.75;99147.41;12189612;19;20006;-85
2022/10/01 03:29:03;;;;;;;5.10;2.33;;;;;;;11.62;94.16;99141.59;12213376;19;20011;-84
2022/10/01 03:33:05;;;;;;;5.10;2.92;;;;;;;11.64;94.70;99142.16;12212076;19;20010;-83
2022/10/01 03:37:15;;;;;;;4.88;2.85;;;;;;;11.70;94.10;99130.03;12195583;19;20006;-86
2022/10/01 03:41:28;;;;;;;4.47;2.75;;;;;;;11.67;94.10;99132.53;12213529;19;20023;-83
2022/10/01 03:45:29;;;;;;;3.60;2.25;;;;;;;11.69;93.46;99131.16;12193206;19;20010;-85
2022/10/01 03:49:37;;;;;;;5.22;2.70;;;;;;;11.72;92.51;99127.84;12215898;19;20027;-82
2022/10/01 03:53:39;;;;;;;3.78;2.60;;;;;;;11.87;92.16;99121.53;12252895;19;20035;-86
2022/10/01 03:57:49;;;;;;;5.57;2.53;;;;;;;11.82;92.16;99132.53;12250879;19;20330;-87
2022/10/01 04:01:50;;;;;;;5.45;3.03;;;;;;;11.91;92.40;99127.34;12259045;19;20011;-85
2022/10/01 04:05:52;;;;;;;11.10;3.30;;;;;;;11.85;94.10;99138.34;12218500;19;20025;-84
2022/10/01 04:09:53;;;;;;;6.20;3.13;;;;;;;11.76;96.91;99142.75;12195514;19;20014;-84
2022/10/01 04:13:56;;;;;;;7.80;4.25;;;;;;;11.51;100.00;99131.63;12219545;19;20037;-83
2022/10/01 04:18:01;;;;;;;6.07;4.03;;;;;;;11.28;100.00;99136.56;12218353;19;20570;-80
2022/10/01 04:22:02;;;;;;;10.07;4.55;;;;;;;11.03;100.00;99142.78;12189598;19;20015;-80
2022/10/01 04:26:04;;;;;;;8.45;5.30;;;;;;;10.75;100.00;99149.56;12209382;19;20018;-83
2022/10/01 04:30:08;;;;;;;9.10;4.65;;;;;;;10.55;100.00;99142.00;12209891;19;20006;-82
2022/10/01 04:34:10;;;;;;;9.55;5.20;;;;;;;10.41;100.00;99149.06;12186972;19;20010;-83
2022/10/01 04:38:15;;;;;;;8.70;5.55;;;;;;;10.35;100.00;99137.22;12212098;19;20022;-84
2022/10/01 04:42:18;;;;;;;7.85;5.45;;;;;;;10.27;100.00;99135.75;12211129;19;20011;-86
2022/10/01 04:46:20;;;;;;;10.95;5.47;;;;;;;10.21;100.00;99123.03;12194648;19;20006;-87
2022/10/01 04:50:24;;;;;;;9.45;5.55;;;;;;;10.16;100.00;99116.66;12209452;19;20351;-86
2022/10/01 04:54:26;;;;;;;10.23;6.50;;;;;;;10.08;100.00;99108.88;12210473;19;20002;-89
2022/10/01 04:58:27;;;;;;;9.30;5.80;;;;;;;10.04;100.00;99112.16;12191986;19;20014;-86
2022/10/01 05:02:29;;;;;;;11.52;5.80;;;;;;;10.03;100.00;99101.41;12211897;19;20385;-86
2022/10/01 05:06:31;;;;;;;12.77;5.95;;;;;;;10.01;100.00;99096.16;12196930;19;20014;-86
2022/10/01 05:10:32;;;;;;;9.25;5.70;;;;;;;9.99;100.00;99079.09;12214491;19;20010;-84
2022/10/01 05:14:37;;;;;;;7.72;5.28;;;;;;;9.89;100.00;99068.00;12217535;19;20475;-85
2022/10/01 05:18:39;;;;;;;7.95;4.90;;;;;;;9.87;100.00;99061.09;12201140;19;20562;-87
2022/10/01 05:22:41;;;;;;;7.20;4.75;;;;;;;9.88;100.00;99032.50;12223031;19;20011;-86
2022/10/01 05:26:42;;;;;;;10.10;4.95;;;;;;;9.90;100.00;99042.13;12236588;19;20030;-84
2022/10/01 05:30:44;;;;;;;6.82;4.00;;;;;;;9.93;100.00;99032.53;12207139;19;20010;-89
2022/10/01 05:34:46;;;;;;;7.25;4.53;;;;;;;9.96;100.00;99043.81;12219808;19;20011;-86
2022/10/01 05:38:53;;;;;;;6.72;4.18;;;;;;;9.96;100.00;99049.31;12222958;19;20007;-84
2022/10/01 05:42:59;;;;;;;7.00;4.47;;;;;;;10.01;100.00;99051.31;12196795;19;20014;-89
2022/10/01 05:47:01;;;;;;;9.60;4.38;;;;;;;9.98;100.00;99044.41;12222657;19;20550;-83
2022/10/01 05:51:05;;;;;;;6.45;4.10;;;;;;;9.98;100.00;99055.41;12221573;19;20463;-84
2022/10/01 05:55:08;;;;;;;7.40;4.10;;;;;;;10.00;100.00;99047.72;12198211;19;20030;-81
2022/10/01 05:59:10;;;;;;;6.30;3.58;;;;;;;10.06;100.00;99058.78;12221685;19;20015;-86
2022/10/01 06:03:13;;;;;;;6.45;4.10;;;;;;;10.09;100.00;99042.56;12220394;19;20014;-87
2022/10/01 06:07:15;;;;;;;;;;;;;;;10.12;100.00;99057.72;12205759;19;20083;-82
2022/10/01 06:11:17;;;;;;;8.07;4.55;;;;;;;10.15;100.00;99035.16;12220744;19;19914;-84
2022/10/01 06:15:19;;;;;;;7.40;4.20;;;;;;;10.13;100.00;99035.41;12221210;19;20694;-83
2022/10/01 06:19:20;;;;;;;6.95;4.78;;;;;;;10.16;100.00;99028.53;12194233;19;20030;-86
2022/10/01 06:23:22;;;;;;;8.88;4.60;;;;;;;10.15;100.00;99032.41;12214421;19;20010;-85
2022/10/01 06:27:26;;;;;;;8.95;4.68;;;;;;;10.12;100.00;99043.94;12219831;19;20006;-80
2022/10/01 06:31:28;;;;;;;9.60;4.57;;;;;;;10.15;100.00;99035.16;12197456;19;20018;-81
2022/10/01 06:35:31;;;;;;;8.33;5.13;;;;;;;10.17;100.00;99052.22;12196202;19;20010;-83
2022/10/01 06:39:33;;;;;;;;;;;;;;;10.12;100.00;99039.28;12193391;19;20678;-83
2022/10/01 06:43:35;;;;;;;10.95;4.43;;;;;;;10.10;100.00;99044.19;12223020;19;19906;-82
2022/10/01 06:47:37;;;;;;;7.82;3.95;;;;;;;10.02;100.00;99023.53;12220613;19;20464;-83
2022/10/01 06:56:04;;;;;;;9.02;4.90;;;;;;;10.16;100.00;99040.38;12218851;19;20010;-83
2022/10/01 07:00:06;;;;;;;9.85;5.28;;;;;;;10.10;100.00;99018.59;12216165;19;20011;-85
2022/10/01 07:04:09;;;;;;;9.82;5.75;;;;;;;10.11;100.00;99028.50;12199268;19;20046;-84
2022/10/01 07:08:11;;;;;;;12.32;5.57;;;;;;;10.10;100.00;99024.09;12221239;19;20006;-84
2022/10/01 07:12:13;;;;;;;10.38;6.03;;;;;;;10.02;100.00;99034.53;12220141;19;20015;-85
2022/10/01 07:16:15;;;;;;;12.43;5.45;;;;;;;10.10;100.00;99024.09;12199037;19;20995;-88
2022/10/01 07:20:19;;;;;;;9.13;5.05;;;;;;;10.14;100.00;99023.31;12220001;19;20023;-86
2022/10/01 07:24:21;;;;;;;11.35;5.20;;;;;;;10.16;100.00;99028.53;12229808;19;20505;-86
2022/10/01 07:28:24;;;;;;;9.60;5.43;;;;;;;10.12;100.00;99030.19;12200716;19;20018;-84
2022/10/01 07:32:30;;;;;;;14.35;6.28;;;;;;;10.11;100.00;99036.75;12220912;19;20007;-83
2022/10/01 07:36:32;;;;;;;10.90;5.85;;;;;;;10.15;100.00;99022.22;12201712;19;20024;-84
2022/10/01 07:40:33;;;;;;;9.55;5.25;;;;;;;10.12;100.00;99014.50;12266656;19;20015;-85
2022/10/01 07:44:35;;;;;;;9.75;5.45;;;;;;;10.13;100.00;99002.38;12241291;19;20044;-84
2022/10/01 07:48:37;;;;;;;9.25;5.40;;;;;;;10.21;100.00;99017.56;12201834;19;20495;-85
2022/10/01 07:52:38;;;;;;;10.98;6.25;;;;;;;10.29;100.00;99027.25;12230392;19;20543;-87
2022/10/01 07:56:40;;;;;;;11.68;5.40;;;;;;;10.29;100.00;99019.00;12224786;19;20015;-86
2022/10/01 08:00:42;;;;;;;7.65;4.40;;;;;;;10.25;100.00;99007.66;12198953;19;20372;-85
2022/10/01 08:09:05;;;;;;;9.13;4.97;;;;;;;10.21;100.00;99009.31;12220839;19;20015;-83
2022/10/01 08:13:13;;;;;;;9.00;5.90;;;;;;;10.22;100.00;99010.97;12196102;19;20007;-86
2022/10/01 08:17:15;;;;;;;6.85;4.35;;;;;;;10.09;100.00;98979.25;12218731;19;20463;-84
2022/10/01 08:21:17;;;;;;;8.45;4.45;;;;;;;10.13;100.00;98985.84;12216688;19;20105;-85
2022/10/01 08:25:18;;;;;;;7.43;5.00;;;;;;;10.13;100.00;98974.03;12192789;19;20006;-85
2022/10/01 08:29:20;;;;;;;7.32;4.55;;;;;;;10.12;100.00;98991.66;12220502;19;20070;-86
2022/10/01 08:33:22;;;;;;;7.37;4.60;;;;;;;10.20;100.00;99002.13;12217379;19;20011;-85
2022/10/01 08:37:26;;;;;;;7.40;4.22;;;;;;;10.19;100.00;99017.81;12197415;19;20010;-82
2022/10/01 08:41:53;;;;;;;7.57;4.25;;;;;;;10.25;100.00;99040.72;12217695;19;20106;-84
2022/10/01 08:45:59;;;;;;;8.40;4.20;;;;;;;10.32;100.00;99021.22;12198714;19;20014;-84
2022/10/01 08:50:38;;;;;;;6.38;3.80;;;;;;;10.32;100.00;99019.31;12224081;19;20050;-83
2022/10/01 08:54:53;;;;;;;7.70;3.95;;;;;;;10.30;100.00;99021.50;12206360;19;20356;-85
2022/10/01 08:59:02;;;;;;;8.85;4.60;;;;;;;10.37;100.00;99016.56;12228850;19;20045;-86
2022/10/01 09:03:05;;;;;;;10.48;3.83;;;;;;;10.36;100.00;99003.91;12226334;19;20103;-83
2022/10/01 09:07:29;;;;;;;;;;;;;;;10.45;100.00;99018.81;12205443;19;20108;-83
2022/10/01 09:11:42;;;;;;;4.93;2.72;;;;;;;10.60;100.00;99025.50;12227275;19;19926;-83
2022/10/01 09:15:55;;;;;;;4.40;2.97;;;;;;;10.72;100.00;99035.19;12212949;19;20022;-81
2022/10/01 09:20:28;;;;;;;5.38;2.58;;;;;;;10.69;100.00;99048.69;12223594;19;20455;-86
2022/10/01 09:24:39;;;;;;;5.75;2.63;;;;;;;10.59;100.00;99045.88;12211928;19;20007;-84
2022/10/01 09:28:51;;;;;;;4.40;2.70;;;;;;;10.58;100.00;99058.81;12228648;19;20014;-85
2022/10/01 09:33:10;;;;;;;3.67;2.72;;;;;;;10.61;100.00;99044.50;12237190;19;20013;-81
2022/10/01 09:37:44;;;;;;;5.18;3.03;;;;;;;10.72;100.00;99051.72;12208698;19;20011;-84
2022/10/01 09:41:47;;;;;;;7.32;3.72;;;;;;;10.80;100.00;99061.41;12226035;19;20006;-84
2022/10/01 09:45:50;;;;;;;4.28;2.80;;;;;;;10.77;100.00;99061.94;12204756;19;20469;-80
2022/10/01 09:49:52;;;;;;;7.38;3.53;;;;;;;10.89;100.00;99064.47;12218538;19;20022;-80
2022/10/01 09:54:08;;;;;;;6.47;2.65;;;;;;;10.84;100.00;99061.69;12220555;19;20010;-82
2022/10/01 09:58:17;;;;;;;6.53;2.70;;;;;;;10.87;100.00;99067.50;12197457;19;20014;-82
2022/10/01 10:02:26;;;;;;;5.95;2.58;;;;;;;10.92;100.00;99069.44;12218190;19;20026;-82
2022/10/01 10:06:30;;;;;;;4.55;2.42;;;;;;;10.95;100.00;99063.41;12222434;19;20015;-82
2022/10/01 10:11:00;;;;;;;4.53;3.00;;;;;;;10.99;100.00;99069.19;12198108;19;20074;-81
2022/10/01 10:15:08;;;;;;;4.32;2.67;;;;;;;11.00;100.00;99071.66;12217317;19;20019;-82
2022/10/01 10:19:27;;;;;;;5.45;3.20;;;;;;;11.08;100.00;99081.34;12194973;19;20026;-82
2022/10/01 10:23:28;;;;;;;5.25;2.70;;;;;;;11.08;100.00;99084.94;12215764;19;20086;-82
2022/10/01 10:27:36;;;;;;;4.35;2.53;;;;;;;11.14;100.00;99083.00;12197343;19;20030;-81
2022/10/01 10:31:42;;;;;;;4.15;2.38;;;;;;;11.19;100.00;99083.03;12220391;19;20021;-82
2022/10/01 10:35:44;;;;;;;4.00;2.35;;;;;;;11.26;100.00;99069.81;12220699;19;20006;-82
2022/10/01 10:39:49;;;;;;;4.47;2.10;;;;;;;11.33;100.00;99086.94;12202038;19;20010;-82
2022/10/01 10:44:03;;;;;;;4.50;2.60;;;;;;;11.40;100.00;99092.19;12219406;19;20011;-83
2022/10/01 10:48:13;;;;;;;3.92;2.67;;;;;;;11.50;100.00;99081.16;12218903;19;20375;-82
2022/10/01 10:52:28;;;;;;;4.95;2.28;;;;;;;11.56;100.00;99077.28;12191808;19;20002;-82
2022/10/01 10:56:30;;;;;;;3.72;2.00;;;;;;;11.54;100.00;99078.66;12216762;19;20010;-83
2022/10/01 11:00:42;;;;;;;4.50;2.60;;;;;;;11.67;100.00;99091.94;12196388;19;20011;-83
2022/10/01 11:04:44;;;;;;;3.22;2.10;;;;;;;11.73;100.00;99085.31;12219831;19;20033;-83
2022/10/01 11:08:56;;;;;;;3.47;2.45;;;;;;;11.73;100.00;99085.31;12214279;19;20010;-84
2022/10/01 11:13:31;;;;;;;5.28;2.55;;;;;;;11.76;100.00;99084.78;12199973;19;20646;-83
2022/10/01 11:17:57;;;;;;;5.15;2.67;;;;;;;11.77;100.00;99091.13;12225746;19;20014;-84
2022/10/01 11:22:11;;;;;;;5.13;3.08;;;;;;;11.78;100.00;99095.56;12229237;19;20009;-82
2022/10/01 11:26:28;;;;;;;4.57;2.83;;;;;;;11.69;100.00;99100.78;12268247;19;20014;-82
2022/10/01 11:31:11;;;;;;;5.20;3.17;;;;;;;11.76;100.00;99106.84;12237856;19;20006;-85
2022/10/01 11:35:27;;;;;;;7.05;3.20;;;;;;;11.72;100.00;99110.44;12221414;19;20006;-83
2022/10/01 11:39:33;;;;;;;5.65;3.35;;;;;;;11.88;100.00;99108.56;12217174;19;20014;-84
2022/10/01 11:43:56;;;;;;;7.47;3.67;;;;;;;11.99;100.00;99105.53;12222286;19;20014;-83
2022/10/01 11:48:01;;;;;;;;;;;;;;;12.12;100.00;99100.53;12223943;19;20014;-82
2022/10/01 11:52:13;;;;;;;4.18;2.47;;;;;;;12.13;100.00;99103.00;12195593;19;19911;-82
2022/10/01 12:00:47;;;;;;;4.68;3.10;;;;;;;12.26;100.00;99118.22;12192928;19;20017;-82
2022/10/01 12:04:57;;;;;;;5.13;3.20;;;;;;;12.26;100.00;99116.28;12215327;19;20011;-79
2022/10/01 12:09:15;;;;;;;4.43;2.63;;;;;;;12.32;100.00;99122.63;12214406;19;20034;-80
2022/10/01 12:13:35;;;;;;;5.80;3.10;;;;;;;12.37;100.00;99116.25;12191121;19;20007;-81
2022/10/01 12:17:45;;;;;;;6.97;2.80;;;;;;;12.44;100.00;99122.34;12217382;19;20062;-82
2022/10/01 12:21:55;;;;;;;4.47;2.83;;;;;;;12.49;100.00;99122.31;12191270;19;20018;-82
2022/10/01 12:26:12;;;;;;;5.35;2.45;;;;;;;12.62;100.00;99123.69;12214390;19;20495;-82
2022/10/01 12:30:22;;;;;;;3.83;2.50;;;;;;;12.73;100.00;99117.00;12217959;19;20011;-81
2022/10/01 12:34:50;;;;;;;5.43;2.70;;;;;;;12.85;100.00;99106.47;12193222;19;20011;-81
2022/10/01 12:39:34;;;;;;;6.45;2.60;;;;;;;13.25;100.00;99118.50;12216936;19;20020;-81
2022/10/01 12:43:42;;;;;;;5.28;2.42;;;;;;;13.81;100.00;99123.69;12235565;19;20042;-82
2022/10/01 12:47:48;;;;;;;4.22;2.45;;;;;;;14.19;100.00;99114.78;12255040;19;20010;-82
2022/10/01 12:52:16;;;;;;;5.70;2.20;;;;;;;14.23;100.00;99104.78;12217584;19;21589;-86
2022/10/01 12:56:37;;;;;;;7.57;2.47;;;;;;;14.08;100.00;99094.66;12229577;19;20009;-83
2022/10/01 13:01:16;;;;;;;2.92;1.63;;;;;;;13.95;100.00;99101.72;12194321;19;20010;-83
2022/10/01 13:05:46;;;;;;;3.40;1.80;;;;;;;14.27;100.00;99108.63;12213213;19;20010;-82
2022/10/01 13:10:05;;;;;;;4.63;1.80;;;;;;;14.74;100.00;99120.94;12189333;19;20361;-83
2022/10/01 13:14:17;;;;;;;2.38;1.50;;;;;;;15.20;100.00;99118.44;12213104;19;20002;-81
2022/10/01 13:19:03;;;;;;;1.98;1.27;;;;;;;15.75;100.00;99109.66;12216422;19;20074;-82
2022/10/01 13:23:22;;;;;;;4.03;1.17;;;;;;;16.09;100.00;99119.66;12107116;19;2004668;-83
2022/10/01 13:27:45;;;;;;;3.78;1.50;;;;;;;16.25;100.00;99123.84;12213390;19;20006;-82
2022/10/01 13:31:56;;;;;;;2.08;1.20;;;;;;;16.13;100.00;99129.88;12190614;19;20011;-83
2022/10/01 13:36:04;;;;;;;1.90;1.00;;;;;;;16.24;100.00;99130.56;12224557;19;20031;-84
2022/10/01 13:40:23;;;;;;;2.75;1.15;;;;;;;16.33;100.00;99137.06;12198698;19;20070;-85
2022/10/01 13:44:33;;;;;;;3.53;1.15;;;;;;;16.24;100.00;99127.78;12223991;19;20018;-82
2022/10/01 13:48:43;;;;;;;1.88;1.00;;;;;;;16.02;100.00;99130.34;12201798;19;20136;-81
2022/10/01 13:52:44;;;;;;;3.85;1.50;;;;;;;15.94;100.00;99129.91;12221348;19;20039;-83
2022/10/01 13:56:46;;;;;;;2.55;1.20;;;;;;;15.99;100.00;99131.78;12223987;19;20034;-83
2022/10/01 14:00:53;;;;;;;;;;;;;;;15.75;100.00;99125.50;12204123;19;21449;-82
2022/10/01 14:05:02;;;;;;;2.72;1.13;;;;;;;15.75;100.00;99126.31;12224374;19;19915;-82
2022/10/01 14:09:13;;;;;;;2.40;1.30;;;;;;;15.92;100.00;99125.78;12222177;19;20030;-82
2022/10/01 14:17:35;;;;;;;2.42;1.50;;;;;;;16.16;100.00;99132.06;12221884;19;20026;-81
2022/10/01 14:21:44;;;;;;;4.60;1.38;;;;;;;16.16;100.00;99147.91;12195915;19;20021;-81
2022/10/01 14:25:45;;;;;;;2.55;1.30;;;;;;;16.22;100.00;99146.69;12220252;19;20015;-82
2022/10/01 14:30:01;;;;;;;3.35;1.10;;;;;;;16.14;100.00;99144.59;12224776;19;20031;-81
2022/10/01 14:34:27;;;;;;;2.15;0.82;;;;;;;15.90;100.00;99145.53;12195138;19;20014;-82
2022/10/01 14:38:29;;;;;;;5.65;1.92;;;;;;;15.84;100.00;99146.72;12215333;19;20007;-83
2022/10/01 14:42:31;;;;;;;3.50;1.10;;;;;;;15.83;100.00;99147.88;12195257;19;20023;-81
2022/10/01 14:46:34;;;;;;;3.15;0.90;;;;;;;15.83;100.00;99145.09;12216951;19;20002;-83
2022/10/01 14:50:37;;;;;;;2.95;1.00;;;;;;;15.94;100.00;99162.41;12215200;19;20351;-81
2022/10/01 14:54:46;;;;;;;3.07;1.10;;;;;;;15.81;100.00;99150.13;12189676;19;20007;-81
2022/10/01 14:58:54;;;;;;;2.53;0.90;;;;;;;15.84;100.00;99154.25;12218537;19;20515;-81
2022/10/01 15:03:04;;;;;;;2.00;0.90;;;;;;;15.69;100.00;99155.28;12215585;19;20055;-82
2022/10/01 15:07:12;;;;;;;2.45;1.35;;;;;;;15.58;100.00;99159.31;12193116;19;20010;-82
2022/10/01 15:11:27;;;;;;;3.65;1.20;;;;;;;15.41;100.00;99159.81;12215692;19;20011;-81
2022/10/01 15:15:38;;;;;;;3.15;0.95;;;;;;;15.34;100.00;99164.91;12215993;19;20034;-81
2022/10/01 15:19:43;;;;;;;3.35;1.40;;;;;;;15.19;100.00;99171.47;12189581;19;20033;-81
2022/10/01 15:23:47;;;;;;;2.20;1.13;;;;;;;15.14;100.00;99177.91;12212174;19;20018;-80
2022/10/01 15:27:48;;;;;;;2.92;1.25;;;;;;;15.14;100.00;99183.47;12192643;19;20006;-81
2022/10/01 15:31:54;;;;;;;5.07;1.30;;;;;;;15.05;100.00;99196.34;12213906;19;20472;-80
2022/10/01 15:36:15;;;;;;;1.92;1.20;;;;;;;14.93;100.00;99199.50;12214092;19;20018;-81
2022/10/01 15:40:26;;;;;;;3.83;1.30;;;;;;;14.83;100.00;99196.84;12188087;19;20026;-82
2022/10/01 15:44:39;;;;;;;2.80;1.30;;;;;;;14.73;100.00;99183.06;12209682;19;20510;-81
2022/10/01 15:48:41;;;;;;;3.83;1.73;;;;;;;14.66;100.00;99188.94;12190997;19;20022;-80
2022/10/01 15:52:49;;;;;;;4.70;1.63;;;;;;;14.53;100.00;99203.50;12209514;19;20104;-80
2022/10/01 15:56:51;;;;;;;2.97;1.70;;;;;;;14.49;100.00;99205.19;12208478;19;20006;-81
2022/10/01 16:01:25;;;;;;;2.80;1.70;;;;;;;14.40;100.00;99213.28;12191481;19;20453;-82
2022/10/01 16:05:44;;;;;;;3.92;1.60;;;;;;;14.40;100.00;99220.78;12210726;19;20475;-82
2022/10/01 16:09:55;;;;;;;2.88;1.45;;;;;;;14.40;100.00;99240.19;12190316;19;20111;-85
2022/10/01 16:14:42;;;;;;;4.07;1.70;;;;;;;14.32;100.00;99242.44;12211207;19;20118;-83
2022/10/01 16:18:52;;;;;;;3.90;1.33;;;;;;;14.31;100.00;99242.75;12187839;19;20006;-82
2022/10/01 16:23:33;;;;;;;4.07;1.70;;;;;;;14.28;100.00;99252.44;12209049;19;20483;-82
2022/10/01 16:28:20;;;;;;;6.90;2.50;;;;;;;14.30;100.00;99263.22;12189699;19;20010;-81
2022/10/01 16:32:22;;;;;;;3.72;1.60;;;;;;;14.30;100.00;99263.22;12203369;19;20007;-81
2022/10/01 16:36:25;;;;;;;5.00;1.65;;;;;;;14.27;100.00;99274.91;12216068;19;20039;-82
2022/10/01 16:40:29;;;;;;;4.32;1.50;;;;;;;14.26;100.00;99287.09;12190438;19;20387;-81
2022/10/01 16:44:33;;;;;;;7.97;1.75;;;;;;;14.22;100.00;99294.31;12210241;19;20014;-81
2022/10/01 16:48:34;;;;;;;5.15;2.10;;;;;;;14.16;100.00;99279.69;12185799;19;20351;-83
2022/10/01 16:52:36;;;;;;;6.15;2.30;;;;;;;14.08;100.00;99297.72;12208036;19;20066;-83
2022/10/01 16:56:40;;;;;;;5.87;1.73;;;;;;;14.10;100.00;99300.22;12203710;19;20011;-81
2022/10/01 17:00:41;;;;;;;3.78;1.75;;;;;;;14.05;100.00;99317.69;12186138;19;20274;-81
2022/10/01 17:04:43;;;;;;;4.53;2.15;;;;;;;14.01;100.00;99336.00;12206070;19;20003;-81
2022/10/01 17:08:45;;;;;;;3.55;1.80;;;;;;;13.95;100.00;99337.16;12211351;19;20006;-81
2022/10/01 17:12:47;;;;;;;4.50;2.13;;;;;;;14.02;100.00;99345.16;12198753;19;20018;-80
2022/10/01 17:16:49;;;;;;;6.40;2.00;;;;;;;14.02;100.00;99348.75;12221324;19;20006;-79
2022/10/01 17:20:51;;;;;;;7.13;2.60;;;;;;;14.05;100.00;99353.72;12215856;19;20007;-81
2022/10/01 17:24:53;;;;;;;5.57;2.47;;;;;;;14.05;100.00;99350.94;12192854;19;20082;-85
2022/10/01 17:28:54;;;;;;;5.18;2.20;;;;;;;14.03;100.00;99355.94;12218823;19;20594;-80
2022/10/01 17:32:58;;;;;;;5.15;2.63;;;;;;;14.09;100.00;99360.31;12221404;19;20577;-87
2022/10/01 17:37:00;;;;;;;8.77;2.72;;;;;;;14.17;100.00;99374.72;12197969;19;20040;-82
2022/10/01 17:41:02;;;;;;;6.93;2.38;;;;;;;14.13;100.00;99380.84;12219714;19;20623;-81
2022/10/01 17:45:07;;;;;;;5.97;2.67;;;;;;;14.12;100.00;99378.34;12231671;19;20006;-81
2022/10/01 17:49:11;;;;;;;3.53;2.00;;;;;;;14.09;100.00;99399.13;12248410;19;20040;-82
2022/10/01 17:53:14;;;;;;;5.15;2.10;;;;;;;14.09;100.00;99406.59;12242044;19;20622;-82
2022/10/01 17:57:16;;;;;;;4.53;2.40;;;;;;;14.02;100.00;99423.53;12212904;19;20015;-83
2022/10/01 18:01:19;;;;;;;5.13;2.10;;;;;;;14.06;100.00;99423.78;12200330;19;19999;-82
2022/10/01 18:05:21;;;;;;;2.78;1.80;;;;;;;14.03;100.00;99439.03;12223398;19;20007;-84
2022/10/01 18:09:24;;;;;;;6.95;2.22;;;;;;;13.99;100.00;99439.91;12221134;19;19999;-83
2022/10/01 18:13:25;;;;;;;8.15;2.40;;;;;;;13.98;100.00;99455.69;12201613;19;20485;-84
2022/10/01 18:17:27;;;;;;;8.02;2.30;;;;;;;13.94;100.00;99456.53;12221744;19;20066;-84
2022/10/01 18:21:31;;;;;;;3.90;1.92;;;;;;;13.91;100.00;99469.00;12217878;19;20683;-82
2022/10/01 18:25:33;;;;;;;6.22;2.50;;;;;;;13.87;100.00;99478.97;12224262;19;20020;-83
2022/10/01 18:29:34;;;;;;;4.32;2.15;;;;;;;13.88;100.00;99486.16;12223341;19;20018;-84
2022/10/01 18:33:38;;;;;;;7.15;3.25;;;;;;;13.89;100.00;99488.66;12200872;19;20014;-85
2022/10/01 18:37:45;;;;;;;4.47;2.28;;;;;;;13.87;100.00;99501.13;12223763;19;20014;-84
2022/10/01 18:41:48;;;;;;;8.45;2.50;;;;;;;13.84;100.00;99498.94;12222338;19;20014;-82
2022/10/01 18:46:19;;;;;;;5.38;2.97;;;;;;;13.82;100.00;99506.66;12207558;19;20023;-81
2022/10/01 18:50:47;;;;;;;9.85;2.60;;;;;;;13.84;100.00;99521.91;12269369;19;20448;-85
2022/10/01 18:55:17;;;;;;;5.65;2.75;;;;;;;13.87;100.00;99535.19;12244693;19;20035;-84
2022/10/01 18:59:51;;;;;;;4.60;2.20;;;;;;;13.90;100.00;99534.63;12234214;19;20330;-84
2022/10/01 19:04:02;;;;;;;6.47;2.05;;;;;;;13.95;100.00;99539.34;12204213;19;20149;-83
2022/10/01 19:08:45;;;;;;;7.85;2.38;;;;;;;13.95;100.00;99547.66;12229747;19;20034;-83
2022/10/01 19:13:12;;;;;;;4.78;2.40;;;;;;;13.97;100.00;99552.91;12200393;19;20035;-84
2022/10/01 19:17:59;;;;;;;13.70;3.33;;;;;;;14.01;100.00;99567.84;12221017;19;20050;-86
2022/10/01 19:22:03;;;;;;;6.28;2.65;;;;;;;14.03;100.00;99585.88;12190999;19;20102;-84
2022/10/01 19:26:12;;;;;;;6.05;3.20;;;;;;;14.01;100.00;99590.03;12211007;19;20009;-84